Schedule Details


Flight Number: CTN625
Departure: Cilipi (LDDU) at 21:35
Arrival: Klisa (LDOS) at 22:40
Route: MADOS L187 BARIT P10 ADULA

Weather Information
LDDU 191100Z 17008KT 140V210 9999 FEW023 SCT065 14/08 Q1019 NOSIG
LDOS 191100Z 13004KT 060V210 CAVOK 12/00 Q1022
Schedule Frequency

Route Map